Terminal Aerodrome Forecast
Issued by NWS Billings, MT

Home | Current Version | Previous Version | Graphics & Text | Print | Product List | Glossary On
Versions: 1 2 3 4 5 6 7 8 9 10 11 12 13 14 15 16 17 18 19 20 21 22 23 24 25 26
000
FTUS45 KBYZ 200520
TAFMLS
TAF
KMLS 200520Z 2006/2106 18006KT P6SM BKN250
     FM200800 24011KT P6SM VCSH BKN050 WS015/30030KT
     FM201500 25010KT P6SM FEW120 SCT200
     FM210100 16006KT P6SM SCT120 BKN200=

USA.gov is the U.S. government's official web portal to all federal, state and local government web resources and services.